Geilenkirchen Air Base

ETNG · North Rhine-Westphalia, Germany

METAR history ETNG · Geilenkirchen Air Base

Below you see METARs of the last few days. Select a year to browse through older METARs, from the year 2007 onwards.

April 15, 2024

Time Code Weather Temp. Visibility Ceiling Wind METAR/SPECI
05:50
V
8 °C 10 km+ - 230° 230° 6 kt METAR ETNG 150350Z 23006KT 9999 FEW030 08/06 Q1014
04:50
V
8 °C 10 km+ - 220° 220° 4 kt METAR ETNG 150250Z 22004KT CAVOK 08/07 Q1014
03:50
V
8 °C 10 km+ - 230° 230° 3 kt METAR ETNG 150150Z 23003KT CAVOK 08/07 Q1014
02:50
V
9 °C 10 km+ - 220° 220° 5 kt METAR ETNG 150050Z 22005KT CAVOK 09/08 Q1015
01:50
V
10 °C 10 km+ 5,000 ft 270° 270° 3 kt METAR ETNG 142350Z 27003KT 9999 -RA SCT040 BKN050 10/08 Q1016
00:50
V
10 °C 10 km+ 4,000 ft 360° 360° 0 kt METAR ETNG 142250Z 00000KT 9999 -RA BKN040 10/09 Q1017

April 14, 2024

Time Code Weather Temp. Visibility Ceiling Wind METAR/SPECI
23:50
V
11 °C 10 km+ 4,000 ft Var Var 2 kt METAR ETNG 142150Z VRB02KT 9999 OVC040 11/07 Q1017
22:50
V
12 °C 10 km+ 7,000 ft Var Var 2 kt METAR ETNG 142050Z VRB02KT 9999 FEW045 OVC070 12/05 Q1017
21:50
V
13 °C 10 km+ - 360° 360° 0 kt METAR ETNG 141950Z 00000KT CAVOK 13/05 Q1018
20:50
V
13 °C 10 km+ - 360° 360° 1 kt METAR ETNG 141850Z 36001KT CAVOK 13/06 Q1018
19:50
V
14 °C 10 km+ 14,000 ft 280° 280° 4 kt METAR ETNG 141750Z AUTO 28004KT 9999 FEW051/// OVC140/// 14/05 Q1019
18:50
V
15 °C 10 km+ 14,000 ft 260° 260° 8 kt METAR ETNG 141650Z AUTO 26008KT 9999 OVC140/// 15/05 Q1020
17:50
V
16 °C 10 km+ 13,000 ft 280° 280° 6 kt METAR ETNG 141550Z AUTO 28006KT 210V310 9999 FEW050/// BKN130/// OVC180/// 16/05 Q1020
16:50
V
16 °C 10 km+ 18,000 ft 280° 280° 7 kt METAR ETNG 141450Z AUTO 28007KT 220V310 9999 SCT049/// BKN180/// BKN230/// 16/05 Q1021
15:50
V
16 °C 10 km+ 25,000 ft 310° 310° 6 kt METAR ETNG 141350Z AUTO 31006KT 260V010 9999 SCT046/// BKN250/// 16/06 Q1021
14:50
V
15 °C 10 km+ 25,000 ft 310° 310° 9 kt METAR ETNG 141250Z AUTO 31009KT 270V340 9999 SCT041/// SCT180/// BKN250/// 15/06 Q1022
13:50
V
15 °C 10 km+ 12,000 ft 270° 270° 11 kt METAR ETNG 141150Z AUTO 27011KT 9999 FEW034/// OVC120/// 15/07 Q1023
12:50
V
16 °C 10 km+ 12,000 ft 260° 260° 10 kt METAR ETNG 141050Z AUTO 26010KT 230V300 9999 SCT030/// BKN120/// BKN140/// 16/09 Q1023
11:50
V
14 °C 10 km+ 3,400 ft 280° 280° 7 kt METAR ETNG 140950Z AUTO 28007KT 240V300 9999 SCT027/// BKN034/// OVC120/// 14/08 Q1023
10:50
M
14 °C 10 km+ 3,000 ft 280° 280° 7 kt METAR ETNG 140850Z AUTO 28007KT 9999 BKN030/// BKN110/// 14/06 Q1023
09:50
V
13 °C 10 km+ 3,200 ft 270° 270° 7 kt METAR ETNG 140750Z AUTO 27007KT 9999 OVC032/// 13/08 Q1023
08:50
V
12 °C 10 km+ 22,000 ft 250° 250° 5 kt METAR ETNG 140650Z AUTO 25005KT 220V280 9999 FEW032/// SCT093/// BKN220/// 12/08 Q1023
07:50
V
12 °C 10 km+ 22,000 ft 250° 250° 6 kt METAR ETNG 140550Z AUTO 25006KT 210V280 9999 FEW017/// OVC220/// 12/07 Q1022
06:50
M
12 °C 10 km+ 2,200 ft 250° 250° 5 kt METAR ETNG 140450Z AUTO 25005KT 9999 FEW018/// BKN022/// 12/06 Q1022
05:50
V
13 °C 10 km+ 27,000 ft 260° 260° 6 kt METAR ETNG 140350Z AUTO 26006KT 9999 SCT027/// BKN270/// OVC370/// 13/06 Q1022
04:50
V
13 °C 10 km+ 34,000 ft 270° 270° 7 kt METAR ETNG 140250Z AUTO 27007KT 9999 SCT290/// OVC340/// 13/05 Q1021
03:50
V
14 °C 10 km+ 32,000 ft 260° 260° 8 kt METAR ETNG 140150Z AUTO 26008KT 9999 OVC320/// 14/04 Q1021
02:50
V
16 °C 10 km+ 28,000 ft 270° 270° 11 kt METAR ETNG 140050Z AUTO 27011KT 9999 BKN280/// OVC380/// 16/02 Q1021
01:50
V
17 °C 10 km+ 31,000 ft 270° 270° 13 kt METAR ETNG 132350Z AUTO 27013KT 9999 BKN310/// OVC350/// 17/06 Q1021
00:50
V
18 °C 10 km+ 30,000 ft 250° 250° 9 kt METAR ETNG 132250Z AUTO 25009KT 220V280 9999 FEW045/// OVC300/// 18/13 Q1020

April 13, 2024

Time Code Weather Temp. Visibility Ceiling Wind METAR/SPECI
23:50
V
19 °C 10 km+ 31,000 ft 230° 230° 7 kt METAR ETNG 132150Z AUTO 23007KT 180V270 9999 FEW048/// BKN310/// OVC360/// 19/13 Q1020
22:50
V
20 °C 10 km+ 32,000 ft 230° 230° 5 kt METAR ETNG 132050Z AUTO 23005KT 190V260 9999 OVC320/// 20/13 Q1020
21:50
V
20 °C 10 km+ 32,000 ft 220° 220° 4 kt METAR ETNG 131950Z AUTO 22004KT 180V260 9999 FEW270/// BKN320/// OVC370/// 20/13 Q1020
20:50
V
22 °C 10 km+ 36,000 ft 240° 240° 7 kt METAR ETNG 131850Z AUTO 24007KT 9999 FEW260/// OVC360/// 22/12 Q1020
19:50
V
23 °C 10 km+ 27,000 ft 240° 240° 10 kt METAR ETNG 131750Z AUTO 24010KT 210V270 9999 BKN270/// OVC380/// 23/12 Q1020
18:50
V
24 °C 10 km+ 26,000 ft 240° 240° 14 - 24 kt METAR ETNG 131650Z AUTO 24014G24KT 200V270 9999 OVC260/// 24/12 Q1020
17:50
V
24 °C 10 km+ 30,000 ft 260° 260° 13 kt METAR ETNG 131550Z AUTO 26013KT 230V290 9999 BKN300/// 24/12 Q1020
16:50
V
25 °C 10 km+ 36,000 ft 240° 240° 10 kt METAR ETNG 131450Z AUTO 24010KT 180V270 9999 SCT300/// BKN360/// 25/11 Q1021
15:50
V
25 °C 10 km+ 29,000 ft 220° 220° 11 kt METAR ETNG 131350Z AUTO 22011KT 160V270 9999 BKN290/// 25/11 Q1021
14:50
V
23 °C 10 km+ - 210° 210° 9 - 19 kt METAR ETNG 131250Z AUTO 21009G19KT 160V250 9999 FEW310/// 23/12 Q1023
13:50
V
22 °C 10 km+ - 230° 230° 11 kt METAR ETNG 131150Z AUTO 23011KT 190V270 9999 FEW260/// SCT310/// 22/12 Q1024
12:50
V
21 °C 10 km+ 25,000 ft 230° 230° 11 kt METAR ETNG 131050Z AUTO 23011KT 170V280 9999 OVC250/// 21/12 Q1025
11:50
V
20 °C 10 km+ 24,000 ft 230° 230° 12 kt METAR ETNG 130950Z AUTO 23012KT 180V280 9999 BKN240/// 20/12 Q1026
10:50
V
19 °C 10 km+ - 220° 220° 9 kt METAR ETNG 130850Z AUTO 22009KT 180V260 9999 SCT250/// 19/12 Q1026
09:50
V
18 °C 10 km+ 24,000 ft 220° 220° 9 kt METAR ETNG 130750Z AUTO 22009KT 180V260 9999 BKN240/// 18/12 Q1027
08:50
V
16 °C 10 km+ 23,000 ft 220° 220° 7 kt METAR ETNG 130650Z AUTO 22007KT 160V260 9999 OVC230/// 16/12 Q1027
07:50
V
15 °C 10 km+ 23,000 ft 220° 220° 5 kt METAR ETNG 130550Z AUTO 22005KT 180V270 9999 BKN230/// OVC270/// 15/11 Q1027
06:50
V
15 °C 10 km+ 25,000 ft Var Var 3 kt METAR ETNG 130450Z AUTO VRB03KT 9999 SCT210/// OVC250/// 15/11 Q1027
05:50
V
15 °C 10 km+ 24,000 ft 220° 220° 5 kt METAR ETNG 130350Z AUTO 22005KT 170V260 9999 SCT210/// BKN240/// OVC330/// 15/11 Q1027
04:50
V
15 °C 10 km+ 22,000 ft 210° 210° 5 kt METAR ETNG 130250Z AUTO 21005KT 170V270 9999 BKN220/// BKN300/// 15/12 Q1027
03:50
V
15 °C 10 km+ 21,000 ft 220° 220° 6 kt METAR ETNG 130150Z AUTO 22006KT 190V260 9999 BKN210/// OVC310/// 15/12 Q1028
02:50
V
16 °C 10 km+ 21,000 ft 220° 220° 6 kt METAR ETNG 130050Z AUTO 22006KT 170V270 9999 OVC210/// 16/12 Q1028
01:50
V
16 °C 10 km+ 22,000 ft 220° 220° 6 kt METAR ETNG 122350Z AUTO 22006KT 170V260 9999 BKN220/// BKN300/// OVC340/// 16/12 Q1028
00:50
V
16 °C 10 km+ 31,000 ft 210° 210° 5 kt METAR ETNG 122250Z AUTO 21005KT 170V240 9999 FEW220/// BKN310/// OVC380/// 16/11 Q1028

April 12, 2024

Time Code Weather Temp. Visibility Ceiling Wind METAR/SPECI
23:50
V
16 °C 10 km+ 32,000 ft 210° 210° 5 kt METAR ETNG 122150Z AUTO 21005KT 170V260 9999 SCT220/// OVC320/// 16/12 Q1028
22:50
V
17 °C 10 km+ 32,000 ft 220° 220° 5 kt METAR ETNG 122050Z AUTO 22005KT 180V250 9999 SCT260/// OVC320/// 17/12 Q1029
21:50
V
17 °C 10 km+ 27,000 ft 210° 210° 5 kt METAR ETNG 121950Z AUTO 21005KT 160V250 9999 OVC270/// 17/12 Q1029
20:50
V
19 °C 10 km+ 26,000 ft 220° 220° 4 kt METAR ETNG 121850Z AUTO 22004KT 190V250 9999 OVC260/// 19/12 Q1029
19:50
V
20 °C 10 km+ - 220° 220° 6 kt METAR ETNG 121750Z 22006KT CAVOK 20/12 Q1029
18:50
V
20 °C 10 km+ 23,000 ft 240° 240° 8 kt METAR ETNG 121650Z 24008KT 9999 SCT037 BKN230 20/12 Q1029 NOSIG
17:50
V
20 °C 10 km+ 4,600 ft 240° 240° 9 kt METAR ETNG 121550Z 24009KT 9999 BKN046 20/12 Q1029 NOSIG
16:50
V
20 °C 10 km+ 4,400 ft 240° 240° 7 kt METAR ETNG 121450Z 24007KT 9999 SCT034 BKN044 20/13 Q1030 NOSIG
15:50
V
20 °C 10 km+ 4,900 ft 250° 250° 10 kt METAR ETNG 121350Z 25010KT 9999 FEW034 BKN049 20/12 Q1030 NOSIG
14:50
V
20 °C 10 km+ 4,500 ft 230° 230° 9 kt METAR ETNG 121250Z 23009KT 9999 FEW033 BKN045 20/12 Q1031 NOSIG
14:51
V
20 °C 10 km+ 4,500 ft 230° 230° 9 kt METAR ETNG 121251Z 23009KT 9999 FEW033 BKN045 20/12 Q1031 NOSIG
13:50
V
20 °C 10 km+ 25,000 ft 230° 230° 9 kt METAR ETNG 121150Z 23009KT 9999 FEW039 SCT045 BKN250 20/12 Q1031 NOSIG
12:50
V
18 °C 10 km+ 3,600 ft 230° 230° 8 kt METAR ETNG 121050Z 23008KT 9999 FEW024 BKN036 18/12 Q1032 NOSIG
11:50
V
18 °C 10 km+ 3,500 ft 220° 220° 8 kt METAR ETNG 120950Z 22008KT 9999 FEW020 BKN035 18/13 Q1032 NOSIG
10:50
V
16 °C 10 km+ 3,200 ft 220° 220° 6 kt METAR ETNG 120850Z 22006KT 9999 OVC032 16/12 Q1032 NOSIG
09:50
M
16 °C 10 km+ 2,800 ft 220° 220° 6 kt METAR ETNG 120750Z 22006KT 9999 OVC028 16/12 Q1032 NOSIG
08:50
M
15 °C 10 km+ 2,000 ft 220° 220° 6 kt METAR ETNG 120650Z 22006KT 9999 FEW009 OVC020 15/12 Q1031 NOSIG
07:50
M
14 °C 10 km+ 2,000 ft 210° 210° 4 kt METAR ETNG 120550Z 21004KT 9999 OVC020 14/12 Q1032 NOSIG
Report a change